Latest Weather Observations for Mallacoota

IDV60801

Issued at 11:22 pm EST Wednesday 12 August 2020 (issued every 10 minutes, with the page automatically refreshed every 10 minutes)

About weather observations | Map of weather stations | Latest weather observations for VIC | Other Formats
Station Details ID: 084084 Name: MALLACOOTA Lat: -37.60 Lon: 149.73 Height: 22.0 m
Data from the previous 72 hours. | See also: Recent months at Mallacoota
Date/Time
EST
Temp
°C
App
Temp
°C
Dew
Point
°C
Rel
Hum
%
Delta-T
°C
Wind Press
QNH
hPa
Press
MSL
hPa
Rain since
9am
mm
Dir  Spd
km/h
Gust
km/h
Spd
kts
Gust
kts
12/11:00pm 12.0 10.0 6.3 68 2.7 NNW 6 9 3 5 1010.3 1010.3 0.0
12/10:30pm 13.2 10.7 6.5 64 3.2 NNW 9 11 5 6 1010.4 1010.4 0.0
12/10:00pm 13.4 10.9 6.7 64 3.2 NW 9 15 5 8 1010.7 1010.7 0.0
12/09:30pm 12.6 10.7 6.9 68 2.7 NW 6 7 3 4 1010.7 1010.7 0.0
12/09:00pm 12.5 10.4 6.8 68 2.7 N 7 9 4 5 1010.6 1010.6 0.0
12/08:30pm 13.1 11.2 6.5 64 3.2 NNE 6 11 3 6 1010.6 1010.6 0.0
12/08:00pm 13.1 10.9 6.2 63 3.3 NNW 7 11 4 6 1010.6 1010.6 0.0
12/07:30pm 13.5 10.9 6.1 61 3.5 NNW 9 13 5 7 1010.7 1010.7 0.0
12/07:00pm 13.3 10.7 5.9 61 3.5 NNW 9 13 5 7 1010.5 1010.5 0.0
12/06:30pm 13.8 10.4 5.9 59 3.8 NNW 13 19 7 10 1010.3 1010.3 0.0
12/06:00pm 13.9 11.6 7.4 65 3.2 N 9 13 5 7 1010.2 1010.2 0.0
12/05:30pm 13.5 11.4 8.1 70 2.7 NNW 9 13 5 7 1010.1 1010.1 0.0
12/05:00pm 13.6 11.5 8.2 70 2.7 N 9 15 5 8 1009.9 1009.9 0.0
12/04:30pm 13.5 12.1 9.0 74 2.3 N 6 9 3 5 1009.9 1009.9 0.0
12/04:00pm 13.8 11.7 8.4 70 2.7 NE 9 13 5 7 1009.9 1009.9 0.0
12/03:30pm 13.7 11.6 8.1 69 2.8 NNE 9 13 5 7 1009.9 1009.9 0.0
12/03:00pm 13.7 12.0 8.5 71 2.6 NE 7 11 4 6 1010.0 1010.0 0.0
12/02:30pm 13.9 12.1 9.5 75 2.3 ENE 9 11 5 6 1010.1 1010.1 0.0
12/02:00pm 14.5 13.1 9.7 73 2.5 ENE 7 9 4 5 1010.6 1010.6 0.0
12/01:30pm 15.2 13.4 7.3 59 3.9 ENE 6 9 3 5 1010.7 1010.7 0.0
12/01:00pm 15.6 12.7 4.9 49 5.0 NNE 9 13 5 7 1011.2 1011.2 0.0
12/12:30pm 15.7 11.8 3.5 44 5.6 NNE 13 20 7 11 1011.7 1011.7 0.0
12/12:00pm 15.4 12.6 3.2 44 5.5 NNE 7 13 4 7 1012.1 1012.1 0.0
12/11:30am 14.4 11.6 5.2 54 4.3 N 9 13 5 7 1013.0 1013.0 0.0
12/11:00am 14.0 11.9 6.6 61 3.6 NNW 7 11 4 6 1013.7 1013.7 0.0
12/10:30am 13.1 10.5 6.0 62 3.4 WNW 9 13 5 7 1013.8 1013.8 0.0
12/10:00am 12.2 9.1 5.6 64 3.1 NW 11 15 6 8 1014.0 1014.0 0.0
12/09:30am 11.2 8.0 4.9 65 2.9 NW 11 15 6 8 1014.1 1014.1 0.0
12/09:00am 11.1 8.2 4.8 65 2.9 WNW 9 13 5 7 1014.2 1014.2 0.0
12/08:30am 10.4 7.1 4.8 68 2.5 NW 11 17 6 9 1014.2 1014.2 0.0
12/08:00am 9.6 6.3 4.8 72 2.1 NW 11 15 6 8 1014.3 1014.3 0.0
12/07:30am 9.2 5.9 4.8 74 2.0 NW 11 15 6 8 1013.8 1013.8 0.0
12/07:00am 9.5 6.3 5.3 75 1.9 NW 11 17 6 9 1013.7 1013.7 0.0
12/06:30am 9.3 6.2 5.7 78 1.6 NNW 11 15 6 8 1013.5 1013.5 0.0
12/06:00am 9.1 5.7 6.0 81 1.4 NNW 13 17 7 9 1013.4 1013.4 0.0
12/05:30am 9.4 6.7 5.8 78 1.6 NNW 9 13 5 7 1013.6 1013.6 0.0
12/05:00am 9.5 7.2 5.9 78 1.7 W 7 9 4 5 1013.5 1013.5 0.0
12/04:30am 10.4 7.4 6.2 75 2.0 NNW 11 13 6 7 1013.2 1013.2 0.0
12/04:00am 10.9 8.4 6.5 74 2.1 NW 9 13 5 7 1013.3 1013.3 0.0
12/03:30am 11.4 8.1 6.5 72 2.3 NNW 13 19 7 10 1013.1 1013.1 0.0
12/03:00am 11.9 8.3 6.6 70 2.5 N 15 24 8 13 1013.3 1013.3 0.0
12/02:30am 11.2 8.0 6.7 74 2.1 NNW 13 20 7 11 1014.0 1014.0 0.0
12/02:00am 11.6 8.0 6.9 73 2.2 N 15 22 8 12 1014.1 1014.1 0.0
12/01:30am 11.5 8.0 7.2 75 2.1 N 15 19 8 10 1014.6 1014.6 0.0
12/01:00am 11.8 8.7 7.3 74 2.2 N 13 20 7 11 1014.4 1014.4 0.0
12/12:30am 11.6 8.9 7.5 76 2.0 N 11 20 6 11 1014.7 1014.7 0.0
12/12:00am 10.5 8.1 6.8 78 1.7 N 9 13 5 7 1014.8 1014.8 0.0
 
Date/Time
EST
Temp
°C
App
Temp
°C
Dew
Point
°C
Rel
Hum
%
Delta-T
°C
Wind Press
QNH
hPa
Press
MSL
hPa
Rain since
9am
mm
Dir  Spd
km/h
Gust
km/h
Spd
kts
Gust
kts
11/11:30pm 10.7 8.0 7.2 79 1.7 NNW 11 17 6 9 1015.5 1015.5 0.0
11/11:00pm 11.1 8.0 7.2 77 1.9 N 13 17 7 9 1015.8 1015.8 0.0
11/10:30pm 11.0 8.0 7.5 79 1.7 N 13 17 7 9 1015.9 1015.9 0.0
11/10:00pm 10.6 7.9 7.3 80 1.6 N 11 17 6 9 1016.0 1016.0 0.0
11/09:30pm 10.5 7.8 7.4 81 1.5 N 11 17 6 9 1016.2 1016.2 0.0
11/09:00pm 9.6 6.8 6.9 83 1.3 N 11 13 6 7 1016.5 1016.5 0.0
11/08:30pm 8.9 6.3 6.2 83 1.2 NNW 9 11 5 6 1016.9 1016.9 0.0
11/08:00pm 9.0 6.8 6.1 82 1.3 NW 7 9 4 5 1017.2 1017.2 0.0
11/07:30pm 9.5 7.5 6.2 80 1.5 NE 6 7 3 4 1017.0 1017.0 0.0
11/07:00pm 9.9 7.9 6.1 77 1.8 NNW 6 7 3 4 1017.3 1017.3 0.0
11/06:30pm 10.7 8.6 6.6 76 1.9 NW 7 9 4 5 1017.2 1017.2 0.0
11/06:00pm 11.6 9.5 6.7 72 2.3 NNW 7 9 4 5 1016.9 1016.9 0.0
11/05:30pm 13.2 10.0 8.3 72 2.4 NNE 15 20 8 11 1016.2 1016.2 0.0
11/05:00pm 14.0 11.1 8.2 68 2.9 NE 13 22 7 12 1016.0 1016.0 0.0
11/04:30pm 14.6 11.7 8.3 66 3.2 NE 13 19 7 10 1016.1 1016.1 0.0
11/04:00pm 15.2 12.5 8.9 66 3.2 E 13 17 7 9 1016.0 1016.0 0.0
11/03:30pm 15.4 12.5 8.2 62 3.6 E 13 17 7 9 1016.1 1016.1 0.0
11/03:00pm 16.4 13.3 5.4 48 5.3 NNE 11 17 6 9 1016.2 1016.2 0.0
11/02:30pm 16.5 13.1 3.9 43 5.9 NE 11 19 6 10 1016.2 1016.2 0.0
11/02:00pm 17.0 14.3 5.6 47 5.5 NNE 9 17 5 9 1016.4 1016.4 0.0
11/01:30pm 16.6 13.7 4.9 46 5.6 NNE 9 13 5 7 1016.7 1016.7 0.0
11/01:00pm 16.7 14.1 6.2 50 5.1 NNW 9 19 5 10 1017.2 1017.2 0.0
11/12:30pm 16.0 12.8 5.3 49 5.1 N 11 17 6 9 1017.5 1017.5 0.0
11/12:00pm 16.1 13.1 6.0 51 4.9 NNW 11 17 6 9 1018.1 1018.1 0.0
11/11:30am 15.3 11.3 5.0 50 4.9 NNW 15 24 8 13 1018.6 1018.6 0.0
11/11:00am 14.7 10.8 5.5 54 4.3 N 15 24 8 13 1019.2 1019.2 0.0
11/10:30am 13.6 9.2 4.5 54 4.2 NNW 17 26 9 14 1019.6 1019.6 0.0
11/10:00am 12.7 8.1 3.6 54 4.1 NNW 17 24 9 13 1019.8 1019.8 0.0
11/09:30am 11.9 7.2 3.4 56 3.8 NNW 17 24 9 13 1020.0 1020.0 0.0
11/09:00am 11.0 6.3 3.3 59 3.4 NNW 17 28 9 15 1020.2 1020.2 0.0
11/08:30am 9.9 5.5 2.7 61 3.1 NNW 15 20 8 11 1020.3 1020.3 0.0
11/08:00am 9.1 5.5 2.7 64 2.7 NNW 11 19 6 10 1020.5 1020.5 0.0
11/07:30am 8.3 4.2 2.5 67 2.4 NNW 13 17 7 9 1020.7 1020.7 0.0
11/07:00am 7.2 3.2 2.7 73 1.9 NNW 13 19 7 10 1020.5 1020.5 0.0
11/06:30am 6.3 3.5 2.9 79 1.4 NNW 7 13 4 7 1020.2 1020.2 0.0
11/06:00am 6.2 3.1 3.4 82 1.2 N 9 11 5 6 1020.0 1020.0 0.0
11/05:30am 6.8 3.4 3.8 81 1.3 NNW 11 17 6 9 1019.9 1019.9 0.0
11/05:00am 6.8 3.4 4.1 83 1.2 NNW 11 15 6 8 1020.0 1020.0 0.0
11/04:30am 6.8 3.4 3.8 81 1.3 NNW 11 13 6 7 1020.1 1020.1 0.0
11/04:00am 7.2 4.2 4.2 81 1.3 N 9 15 5 8 1020.3 1020.3 0.0
11/03:30am 7.7 5.0 3.6 75 1.8 N 7 9 4 5 1020.7 1020.7 0.0
11/03:00am 8.7 5.9 3.3 69 2.3 N 7 9 4 5 1021.0 1021.0 0.0
11/02:30am 9.8 7.0 3.3 64 2.8 N 7 11 4 6 1021.2 1021.2 0.0
11/02:00am 11.4 7.5 3.4 58 3.5 N 13 22 7 12 1021.6 1021.6 0.0
11/01:30am 10.8 8.3 4.5 65 2.8 NNW 7 9 4 5 1021.9 1021.9 0.0
11/01:00am 10.6 8.4 5.2 69 2.4 NNW 6 9 3 5 1021.8 1021.8 0.0
11/12:30am 10.8 8.3 4.9 67 2.7 NNW 7 11 4 6 1021.7 1021.7 0.0
11/12:00am 11.1 8.2 4.8 65 2.8 N 9 15 5 8 1021.7 1021.7 0.0
 
Date/Time
EST
Temp
°C
App
Temp
°C
Dew
Point
°C
Rel
Hum
%
Delta-T
°C
Wind Press
QNH
hPa
Press
MSL
hPa
Rain since
9am
mm
Dir  Spd
km/h
Gust
km/h
Spd
kts
Gust
kts
10/11:30pm 10.5 8.2 5.5 71 2.3 NW 7 9 4 5 1021.9 1021.9 0.0
10/11:00pm 11.4 8.4 4.2 61 3.2 N 9 15 5 8 1022.0 1022.0 0.0
10/10:30pm 11.2 8.7 4.7 64 2.9 NNW 7 11 4 6 1022.2 1022.2 0.0
10/10:00pm 11.8 8.7 3.6 57 3.6 NNE 9 15 5 8 1022.3 1022.3 0.0
10/09:30pm 10.8 8.3 4.7 66 2.8 N 7 15 4 8 1022.4 1022.4 0.0
10/09:00pm 10.7 9.8 5.9 72 2.2 CALM 0 0 0 0 1022.6 1022.6 0.0
10/08:30pm 10.9 9.8 5.2 68 2.6 CALM 0 0 0 0 1022.5 1022.5 0.0
10/08:00pm 11.0 8.8 5.1 67 2.7 NNW 6 9 3 5 1022.5 1022.5 0.0
10/07:30pm 11.0 8.7 4.9 66 2.8 N 6 9 3 5 1022.4 1022.4 0.0
10/07:00pm 11.2 9.3 4.9 65 2.9 WSW 4 7 2 4 1022.3 1022.3 0.0
10/06:30pm 11.5 10.0 4.9 64 3.0 SW 2 6 1 3 1022.0 1022.0 0.0
10/06:00pm 12.2 9.7 3.7 56 3.8 SSW 6 13 3 7 1021.9 1021.9 0.0
10/05:30pm 12.1 9.8 4.6 60 3.4 W 6 7 3 4 1021.7 1021.7 0.0
10/05:00pm 12.5 9.6 4.5 58 3.6 S 9 15 5 8 1021.5 1021.5 0.0
10/04:30pm 12.6 9.4 5.3 61 3.4 S 11 15 6 8 1021.6 1021.6 0.0
10/04:00pm 12.5 9.8 5.4 62 3.3 SSW 9 13 5 7 1021.6 1021.6 0.0
10/03:30pm 12.6 9.6 5.8 63 3.2 S 11 13 6 7 1021.6 1021.6 0.0
10/03:00pm 12.5 9.5 5.9 64 3.1 SSE 11 19 6 10 1021.8 1021.8 0.0
10/02:30pm 12.8 9.1 6.2 64 3.1 S 15 24 8 13 1022.0 1022.0 0.0
10/02:00pm 13.1 9.7 6.0 62 3.3 S 13 20 7 11 1022.2 1022.2 0.0
10/01:30pm 13.0 8.7 5.2 59 3.6 S 17 22 9 12 1022.3 1022.3 0.0
10/01:00pm 13.3 10.2 5.5 59 3.6 SSW 11 17 6 9 1022.4 1022.4 0.0
10/12:30pm 12.7 8.4 5.4 61 3.4 SSW 17 22 9 12 1022.7 1022.7 0.0
10/12:00pm 12.6 8.1 6.2 65 3.0 SSW 19 24 10 13 1022.9 1022.9 0.0
10/11:30am 12.8 10.0 5.0 59 3.6 S 9 17 5 9 1023.2 1023.3 0.0
10/11:00am 12.9 9.2 4.3 56 3.9 S 13 20 7 11 1023.2 1023.3 0.0
10/10:30am 13.1 8.5 3.7 53 4.2 S 17 22 9 12 1023.2 1023.3 0.0
10/10:00am 12.8 7.7 3.2 52 4.2 S 19 30 10 16 1023.2 1023.3 0.0
10/09:30am 12.7 8.7 4.7 58 3.7 S 15 26 8 14 1023.0 1023.0 0.0
10/09:00am 12.3 8.1 4.0 57 3.7 SSW 15 22 8 12 1022.9 1022.9 0.8
10/08:30am 12.6 8.1 4.1 56 3.8 S 17 22 9 12 1022.7 1022.7 0.8
10/08:00am 12.4 6.9 3.9 56 3.8 S 22 33 12 18 1022.4 1022.4 0.8
10/07:30am 12.2 7.7 6.0 66 2.9 S 19 28 10 15 1022.2 1022.2 0.8
10/07:00am 12.4 7.3 4.1 57 3.7 S 20 30 11 16 1021.9 1021.9 0.8
10/06:30am 12.3 6.4 3.8 56 3.8 S 24 35 13 19 1021.7 1021.7 0.8
10/06:00am 12.4 9.0 3.9 56 3.8 SSE 11 24 6 13 1021.4 1021.4 0.8
10/05:30am 12.4 7.9 4.1 57 3.7 S 17 26 9 14 1020.9 1020.9 0.8
10/05:00am 12.4 9.2 5.1 61 3.4 SE 11 20 6 11 1020.8 1020.8 0.8
10/04:30am 12.3 7.9 6.6 68 2.7 S 19 28 10 15 1020.6 1020.6 0.8
10/04:00am 12.3 9.0 6.6 68 2.7 SSE 13 26 7 14 1020.3 1020.3 0.8
10/03:30am 12.3 7.8 6.1 66 2.9 S 19 30 10 16 1020.2 1020.2 0.8
10/03:00am 12.3 9.3 6.1 66 2.9 SE 11 19 6 10 1020.3 1020.3 0.8
10/02:30am 12.4 9.7 5.8 64 3.1 SSE 9 17 5 9 1020.4 1020.4 0.8
10/02:00am 12.3 9.7 6.1 66 2.9 SE 9 19 5 10 1020.3 1020.3 0.8
10/01:30am 12.5 8.2 6.8 68 2.7 S 19 26 10 14 1020.5 1020.5 0.8
10/01:00am 12.6 10.1 6.4 66 2.9 SE 9 19 5 10 1020.4 1020.4 0.8
10/12:30am 12.6 10.0 6.0 64 3.1 SE 9 20 5 11 1020.6 1020.6 0.8
10/12:00am 12.5 10.1 7.0 69 2.6 SSE 9 22 5 12 1020.5 1020.5 0.8
 
Date/Time
EST
Temp
°C
App
Temp
°C
Dew
Point
°C
Rel
Hum
%
Delta-T
°C
Wind Press
QNH
hPa
Press
MSL
hPa
Rain since
9am
mm
Dir  Spd
km/h
Gust
km/h
Spd
kts
Gust
kts
09/11:30pm 12.6 10.0 7.7 72 2.4 ESE 11 20 6 11 1020.6 1020.6 0.8

Other formats

Comma delimited format used in spreadsheet applications
http://www.bom.gov.au/fwo/IDV60801/IDV60801.94935.axf

JavaScript Object Notation format (JSON) in row-major order
http://www.bom.gov.au/fwo/IDV60801/IDV60801.94935.json

Data quality

Most of these data are generated automatically and are frequently updated. Quality checks on data are not normally performed. It is possible for incorrect values to appear. Refer to information at About Latest Weather Observations and please check the disclaimer before using these data.